Truro, Massachusetts
Current Conditions -  °F | °C
As of 6:15 AM on Monday 20 Oct 2014 (Local Time) from KPVC Reporting Station
Clear Clear  
Wind Chill: 37°   Ceiling: Unl
Heat Index: 45°   Visibility: 10mi
Dew Point: 28°   Wind: 16mph
Humidity: 53%   Direction: 300°WNW
Pressure: 30.01"   Gusts: 21mph
Location:  42°N, 70.07°W
Report Text: KPVC 201015Z 30014G18KT 10SM CLR 07/M02 A3001 RMK AO1
Loading
Personal Weather Stations






























Interactive Weather Map New forecast layout! Learn more

10-Day Weather Forecast

Advertisements
Track Severe Weather on mobile